Schedule Details


Flight Number: CTN4467
Departure: Zurich (LSZH) at 10:05
Arrival: Cilipi (LDDU) at 12:00
Route: DEGES?N871?MADEB?N606?ELMEM?L607?GEDSO?DCT?TUTIV?DCT?GEMKA?L607?NERRA

Weather Information
LSZH 221650Z 22003KT CAVOK 21/15 Q1010 NOSIG
LDDU 221630Z 14008KT CAVOK 20/13 Q1019 NOSIG
Schedule Frequency

Route Map